Hawk Run, PA (16840)

8:46 AM EST on January 30, 2015 (GMT -0500)
South Philipsburg | Change Station
CLOSE
Current Station
Personal Weather Station
Location: Philipsburg, PA
Elevation: 1444 ft
Nearby Weather Stations
Active Advisory: Wind Chill Advisory

Elev 1444 ft 40.89 °N, 78.22 °W | Updated 1 minute ago

Overcast
Overcast
26.2 °F
Feels Like 21 °F
N
4.0
Wind Variable Wind from North
Gusts 6.0 mph

Today
High -- | Low -- °F
--% Chance of Precip.
Yesterday
High -- | Low -- °F
Precip. -- in
7:25 AM 5:27 PM
Waxing Gibbous, 83% visible
Pressure 29.98 in
Visibility 2.0 miles
Clouds Overcast 1400 ft
Windchill 21 °F
Dew Point 23 °F
Humidity 86%
Rainfall 0.00 in
Snow Depth Not available.
UV 0 out of 12
Pollen .10 out of 12
Air Quality Not available.
Flu Activity Not available.
SPECI KFIG 301337Z AUTO 29015G25KT 2SM -SN OVC014 M04/M07 A2998 RMK AO2 UPE14SNB14 P0000 T10441072

More Conditions Fewer Conditions

Pressure 29.98 in
Visibility 2.0 miles
Clouds Overcast 1400 ft
Windchill 21 °F
Dew Point 23 °F
Humidity 86%
Rainfall 0.00 in
Snow Depth Not available.
UV 0 out of 12
Pollen .10 out of 12
Air Quality Not available.
Flu Activity Not available.
SPECI KFIG 301337Z AUTO 29015G25KT 2SM -SN OVC014 M04/M07 A2998 RMK AO2 UPE14SNB14 P0000 T10441072

More Conditions Fewer Conditions

Nowcast | as of 7:17 am EST on January 30, 2015

Post frontal snow bands have formed across central Pennsylvania in the gusty northwesterly flow this morning. In these bands the snow may be heavy at times with reduced visibilities. The snow bands will weaken as they move eastward. Snow accumulations around a half an inch in the heaviest bands is possible.

×

10-Day Weather Forecast

Almanac

Astronomy

Jan. 30, 2015 Rise Set
Actual Time
Civil Twilight
Nautical Twilight
Astronomical Twilight
Moon
Length of Visible Light
Length of Day
Tomorrow will be .
, % of the Moon is Illuminated

Today's Extremes

State Highs State Lows

Community

WunderPhotos

Upload Photos

1,791,751 photos uploaded!

WunderBlogs® & News

Nearby

Air Quality

  Air Quality AQ Index Pollutant
Not available.

Snow Depth

Station Depth Elevation

Earthquake Activity

City Distance Mag. Time & Date
Minimum magnitude displayed is 2.5.

Coastal Water Temperatures

Place Temperature

Nearby Weather Stations